Time;durP1;ratioP1;P1;durP2;ratioP2;P2;SDS_P1;SDS_P2;PMS_P1;PMS_P2;Temp;Humidity;BMP_temperature;BMP_pressure;BME280_temperature;BME280_humidity;BME280_pressure;Samples;Min_cycle;Max_cycle;Signal;HPM_P1;HPM_P2
2022/04/18 00:01:52;;;;;;;13.00;4.50;;;;;;;-0.01;87.14;99576.03;109586;1273;22411;-61
2022/04/18 00:04:40;;;;;;;11.20;5.70;;;;;;;0.00;87.03;99573.71;109541;1274;23165;-60
2022/04/18 00:07:10;;;;;;;12.60;4.80;;;;;;;0.03;87.31;99573.28;109538;1272;22560;-60
2022/04/18 00:09:38;;;;;;;13.70;5.50;;;;;;;0.04;87.24;99568.57;109570;1274;23107;-61
2022/04/18 00:12:28;;;;;;;9.40;5.50;;;;;;;0.06;87.33;99568.02;109580;1274;22457;-61
2022/04/18 00:15:09;;;;;;;11.90;5.00;;;;;;;0.07;87.16;99563.02;109522;1275;22441;-61
2022/04/18 00:17:37;;;;;;;12.90;5.50;;;;;;;0.10;87.60;99565.02;109482;1275;22477;-61
2022/04/18 00:20:25;;;;;;;11.10;5.80;;;;;;;0.12;87.39;99564.92;109528;1273;23163;-61
2022/04/18 00:22:57;;;;;;;17.80;5.30;;;;;;;0.11;87.10;99561.02;109562;1274;23128;-60
2022/04/18 00:25:25;;;;;;;14.60;7.30;;;;;;;0.10;87.16;99560.16;109526;1274;22888;-60
2022/04/18 00:28:15;;;;;;;13.80;5.00;;;;;;;0.11;87.08;99553.12;109538;1274;22267;-60
2022/04/18 00:30:44;;;;;;;8.30;4.30;;;;;;;0.12;87.42;99552.64;109501;1274;22629;-60
2022/04/18 00:33:32;;;;;;;13.90;4.90;;;;;;;0.12;87.53;99550.37;109538;1274;22260;-61
2022/04/18 00:36:01;;;;;;;14.70;5.60;;;;;;;0.12;87.05;99544.77;109508;1274;22246;-61
2022/04/18 00:38:29;;;;;;;8.20;4.90;;;;;;;0.13;87.26;99543.95;109571;1274;22442;-60
2022/04/18 00:40:57;;;;;;;14.70;5.90;;;;;;;0.12;87.28;99541.19;109555;1274;23196;-61
2022/04/18 00:43:44;;;;;;;9.70;4.60;;;;;;;0.15;87.56;99541.33;109540;1274;22326;-60
2022/04/18 00:46:14;;;;;;;11.90;5.00;;;;;;;0.19;87.59;99535.44;107687;1274;22551;-60
2022/04/18 00:48:43;;;;;;;7.80;3.90;;;;;;;0.22;87.63;99535.84;109563;1274;22436;-60
2022/04/18 00:51:13;;;;;;;8.40;4.20;;;;;;;0.24;87.87;99533.43;109524;1274;22471;-61
2022/04/18 00:53:43;;;;;;;9.80;5.00;;;;;;;0.25;87.76;99531.74;109567;1273;22589;-60
2022/04/18 00:56:16;;;;;;;14.30;4.90;;;;;;;0.28;87.68;99532.56;109556;1274;22261;-60
2022/04/18 00:58:46;;;;;;;9.10;4.10;;;;;;;0.29;87.62;99530.82;109575;1274;22237;-60
2022/04/18 01:01:15;;;;;;;6.70;3.70;;;;;;;0.27;87.45;99533.88;109447;1276;23063;-60
2022/04/18 01:03:44;;;;;;;12.50;4.10;;;;;;;0.26;87.24;99528.84;109393;1275;22431;-60
2022/04/18 01:06:13;;;;;;;7.00;3.70;;;;;;;0.28;87.31;99528.61;109412;1274;23196;-60
2022/04/18 01:08:45;;;;;;;11.10;3.80;;;;;;;0.31;87.42;99526.92;109496;1274;23069;-60
2022/04/18 01:11:14;;;;;;;8.10;3.00;;;;;;;0.31;87.22;99522.64;109358;1277;23219;-61
2022/04/18 01:14:03;;;;;;;5.80;3.80;;;;;;;0.32;87.29;99519.89;109470;1274;22395;-60
2022/04/18 01:16:51;;;;;;;;;;;;;;;0.32;87.10;99514.40;106517;1274;25200;-60
2022/04/18 01:19:42;;;;;;;11.50;4.10;;;;;;;0.29;86.98;99512.92;105206;1274;22714;-60
2022/04/18 01:22:29;;;;;;;14.20;4.10;;;;;;;0.25;86.82;99510.27;109466;1275;22370;-60
2022/04/18 01:31:04;;;;;;;;;;;;;;;0.18;86.88;99500.30;109421;1274;22452;-60
2022/04/18 01:33:33;;;;;;;7.20;3.90;;;;;;;0.18;87.00;99494.36;109520;1274;22564;-60
2022/04/18 01:36:01;;;;;;;10.40;3.60;;;;;;;0.17;86.90;99489.16;109514;1274;22433;-60
2022/04/18 01:38:30;;;;;;;7.10;3.60;;;;;;;0.15;87.04;99485.77;109444;1274;22512;-60
2022/04/18 01:41:00;;;;;;;7.90;3.70;;;;;;;0.17;86.93;99482.52;109457;1276;22372;-60
2022/04/18 01:43:28;;;;;;;8.40;3.90;;;;;;;0.17;86.76;99481.79;109501;1276;22428;-60
2022/04/18 01:45:58;;;;;;;8.30;3.80;;;;;;;0.17;86.95;99477.13;107980;1274;24253;-64
2022/04/18 01:48:28;;;;;;;8.10;3.50;;;;;;;0.19;87.00;99479.17;105160;1274;24009;-63
2022/04/18 01:50:56;;;;;;;6.40;3.30;;;;;;;0.20;87.09;99476.83;105155;1274;24161;-63
2022/04/18 01:53:26;;;;;;;8.10;3.80;;;;;;;0.19;86.87;99477.73;105275;1274;24315;-63
2022/04/18 01:55:54;;;;;;;5.50;3.00;;;;;;;0.20;86.94;99479.13;109579;1274;23507;-63
2022/04/18 01:58:34;;;;;;;4.90;3.10;;;;;;;0.21;86.83;99475.36;109488;1274;22437;-64
2022/04/18 02:01:03;;;;;;;5.70;2.90;;;;;;;0.21;86.59;99475.52;109417;1274;22440;-63
2022/04/18 02:03:34;;;;;;;7.00;3.40;;;;;;;0.21;86.66;99473.72;109464;1274;22517;-64
2022/04/18 02:06:02;;;;;;;7.60;3.70;;;;;;;0.22;86.85;99470.84;109576;1274;22459;-64
2022/04/18 02:08:30;;;;;;;7.80;3.90;;;;;;;0.23;86.72;99471.88;109413;1274;22604;-63
2022/04/18 02:11:04;;;;;;;8.60;3.10;;;;;;;0.23;86.68;99471.75;109554;1274;22403;-64
2022/04/18 02:13:46;;;;;;;9.50;3.10;;;;;;;0.25;86.53;99471.69;109488;1274;22427;-63
2022/04/18 02:16:14;;;;;;;6.50;2.90;;;;;;;0.25;86.36;99469.14;109355;1276;22306;-64
2022/04/18 02:18:46;;;;;;;10.40;3.80;;;;;;;0.26;86.25;99460.75;109452;1274;22412;-63
2022/04/18 02:21:16;;;;;;;5.70;3.10;;;;;;;0.31;86.69;99463.40;109441;1274;22342;-63
2022/04/18 02:23:44;;;;;;;5.90;2.80;;;;;;;0.35;86.54;99459.81;109554;1273;22448;-64
2022/04/18 02:26:12;;;;;;;6.10;3.20;;;;;;;0.38;86.29;99461.31;109526;1274;23164;-60
2022/04/18 02:28:41;;;;;;;5.20;2.50;;;;;;;0.41;86.51;99459.09;109469;1274;22467;-60
2022/04/18 02:31:11;;;;;;;5.80;3.00;;;;;;;0.45;86.34;99455.27;109376;1274;22597;-60
2022/04/18 02:33:40;;;;;;;4.10;2.80;;;;;;;0.47;86.27;99460.34;109465;1274;22423;-60
2022/04/18 02:36:08;;;;;;;5.40;3.20;;;;;;;0.46;86.21;99453.76;109380;1274;22266;-60
2022/04/18 02:38:36;;;;;;;5.80;3.00;;;;;;;0.43;85.97;99451.14;109539;1274;22232;-60
2022/04/18 02:41:04;;;;;;;4.60;3.10;;;;;;;0.39;85.61;99452.42;109523;1274;22446;-60
2022/04/18 02:43:32;;;;;;;6.20;2.70;;;;;;;0.36;85.67;99447.58;109519;1274;22413;-60
2022/04/18 02:46:05;;;;;;;4.70;3.20;;;;;;;0.38;85.44;99450.45;109384;1274;22541;-60
2022/04/18 02:48:46;;;;;;;54.30;20.60;;;;;;;0.38;85.64;99450.73;109403;1274;22213;-60
2022/04/18 02:51:17;;;;;;;70.90;28.30;;;;;;;0.38;85.90;99445.08;109424;1274;22614;-60
2022/04/18 02:53:45;;;;;;;35.00;15.40;;;;;;;0.40;85.86;99446.09;109433;1274;22400;-60
2022/04/18 02:56:15;;;;;;;16.40;7.40;;;;;;;0.42;85.92;99443.88;109696;1271;23282;-63
2022/04/18 02:58:47;;;;;;;13.20;5.80;;;;;;;0.43;85.97;99444.17;109735;1274;22411;-63
2022/04/18 03:01:15;;;;;;;9.20;4.30;;;;;;;0.44;85.64;99442.69;109666;1272;22441;-63
2022/04/18 03:03:45;;;;;;;7.00;3.90;;;;;;;0.46;85.91;99445.91;109680;1271;22372;-63
2022/04/18 03:06:14;;;;;;;8.20;4.30;;;;;;;0.47;85.77;99436.52;109717;1271;22455;-63
2022/04/18 03:08:43;;;;;;;5.90;4.10;;;;;;;0.47;85.77;99437.77;109740;1271;22489;-63
2022/04/18 03:11:14;;;;;;;10.40;4.20;;;;;;;0.48;85.62;99439.13;109756;1269;22469;-63
2022/04/18 03:13:46;;;;;;;11.20;4.10;;;;;;;0.44;85.35;99436.96;109706;1271;22224;-63
2022/04/18 03:16:36;;;;;;;6.20;3.70;;;;;;;0.39;85.15;99436.84;109680;1271;22483;-63
2022/04/18 03:19:05;;;;;;;8.40;3.90;;;;;;;0.36;85.24;99435.83;109749;1271;23163;-63
2022/04/18 03:21:37;;;;;;;9.40;4.60;;;;;;;0.32;85.18;99435.58;109692;1271;23490;-64
2022/04/18 03:24:08;;;;;;;8.90;4.00;;;;;;;0.29;85.00;99435.02;109752;1269;22432;-63
2022/04/18 03:26:38;;;;;;;9.40;3.60;;;;;;;0.28;85.15;99429.63;107144;1271;24421;-63
2022/04/18 03:29:12;;;;;;;9.30;4.70;;;;;;;0.28;85.32;99427.81;109750;1270;22536;-63
2022/04/18 03:31:40;;;;;;;6.70;3.50;;;;;;;0.27;85.63;99428.35;109689;1272;23199;-63
2022/04/18 03:34:09;;;;;;;7.40;3.60;;;;;;;0.26;85.07;99421.34;109773;1271;22475;-64
2022/04/18 03:42:11;;;;;;;4.30;3.40;;;;;;;0.25;85.09;99415.23;109758;1269;22473;-63
2022/04/18 03:44:43;;;;;;;4.70;3.20;;;;;;;0.23;85.15;99416.56;109717;1271;23326;-64
2022/04/18 03:47:11;;;;;;;7.40;3.20;;;;;;;0.22;85.29;99415.94;109681;1271;22471;-63
2022/04/18 03:49:40;;;;;;;5.30;3.30;;;;;;;0.26;85.18;99416.05;109730;1271;22413;-63
2022/04/18 03:52:08;;;;;;;4.10;2.90;;;;;;;0.27;85.54;99415.33;109689;1271;22430;-63
2022/04/18 03:54:40;;;;;;;5.00;3.20;;;;;;;0.27;85.18;99413.26;109696;1271;22444;-64
2022/04/18 03:57:09;;;;;;;6.30;3.20;;;;;;;0.27;85.58;99410.14;109707;1271;23185;-63
2022/04/18 03:59:48;;;;;;;5.50;3.50;;;;;;;0.29;85.42;99409.64;109744;1271;23134;-64
2022/04/18 04:02:18;;;;;;;5.30;3.10;;;;;;;0.32;85.43;99406.27;109771;1270;23080;-63
2022/04/18 04:04:51;;;;;;;6.50;3.10;;;;;;;0.36;85.39;99396.13;109766;1271;22413;-63
2022/04/18 04:07:38;;;;;;;6.70;4.00;;;;;;;0.38;85.31;99390.45;109686;1271;23096;-63
2022/04/18 04:10:18;;;;;;;7.00;3.40;;;;;;;0.38;85.35;99386.75;109730;1269;23222;-64
2022/04/18 04:13:07;;;;;;;8.30;5.50;;;;;;;0.41;85.29;99380.54;109737;1271;22265;-63
2022/04/18 04:15:52;;;;;;;4.00;3.40;;;;;;;0.43;85.35;99380.27;109733;1271;22449;-64
2022/04/18 04:18:28;;;;;;;4.40;2.70;;;;;;;0.45;85.33;99376.25;109689;1271;22387;-64
2022/04/18 04:21:00;;;;;;;6.40;3.40;;;;;;;0.48;85.65;99366.69;109697;1270;23206;-64
2022/04/18 04:23:29;;;;;;;4.80;3.00;;;;;;;0.52;85.57;99362.01;109661;1271;22384;-64
2022/04/18 04:26:36;;;;;;;6.30;3.40;;;;;;;0.51;84.64;99364.02;107118;1271;23173;-63
2022/04/18 04:29:05;;;;;;;5.10;3.00;;;;;;;0.48;84.70;99359.79;109720;1271;23271;-64
2022/04/18 04:31:57;;;;;;;4.60;3.00;;;;;;;0.44;84.98;99362.49;109643;1271;22408;-64
2022/04/18 04:34:41;;;;;;;7.00;4.20;;;;;;;0.43;84.82;99359.48;109701;1272;22410;-64
2022/04/18 04:37:30;;;;;;;8.40;3.60;;;;;;;0.41;84.95;99356.76;109701;1271;22430;-63
2022/04/18 04:40:13;;;;;;;5.40;3.80;;;;;;;0.38;84.82;99353.10;109754;1271;22425;-63
2022/04/18 04:42:41;;;;;;;5.10;3.50;;;;;;;0.35;84.94;99352.70;109735;1271;22413;-63
2022/04/18 04:45:10;;;;;;;5.20;3.50;;;;;;;0.32;84.84;99350.58;109677;1272;22411;-64
2022/04/18 04:48:12;;;;;;;4.20;3.00;;;;;;;0.30;84.91;99345.20;109701;1271;23215;-63
2022/04/18 04:50:44;;;;;;;4.30;3.30;;;;;;;0.30;84.78;99346.11;109705;1271;23490;-64
2022/04/18 04:53:13;;;;;;;5.70;3.80;;;;;;;0.29;84.91;99345.48;109683;1271;23196;-63
2022/04/18 04:55:42;;;;;;;5.50;3.40;;;;;;;0.30;85.17;99348.76;109730;1271;22903;-63
2022/04/18 04:58:10;;;;;;;6.10;3.70;;;;;;;0.33;84.96;99342.76;109710;1271;22371;-64
2022/04/18 05:00:54;;;;;;;4.50;3.30;;;;;;;0.36;84.94;99343.85;109712;1271;22922;-64
2022/04/18 05:03:42;;;;;;;4.80;3.40;;;;;;;0.39;85.23;99343.83;109572;1272;23210;-64
2022/04/18 05:06:11;;;;;;;5.00;3.20;;;;;;;0.40;84.87;99347.30;109752;1270;22508;-59
2022/04/18 05:08:43;;;;;;;3.60;2.70;;;;;;;0.42;84.64;99349.34;109672;1271;23282;-60
2022/04/18 05:11:13;;;;;;;6.60;3.80;;;;;;;0.43;84.75;99349.59;109715;1270;22407;-61
2022/04/18 05:13:45;;;;;;;6.50;3.30;;;;;;;0.42;84.70;99348.11;109685;1271;23175;-60
2022/04/18 05:16:15;;;;;;;7.00;3.40;;;;;;;0.43;84.66;99345.23;109647;1272;22434;-60
2022/04/18 05:18:50;;;;;;;5.90;2.90;;;;;;;0.46;84.94;99341.63;109673;1271;23353;-60
2022/04/18 05:21:19;;;;;;;6.70;2.90;;;;;;;0.49;84.51;99343.89;109750;1271;22421;-60
2022/04/18 05:23:48;;;;;;;4.80;3.30;;;;;;;0.51;84.85;99336.27;109691;1271;23024;-60
2022/04/18 05:26:16;;;;;;;5.80;3.50;;;;;;;0.57;84.73;99337.34;109747;1270;22401;-60
2022/04/18 05:28:45;;;;;;;5.90;3.50;;;;;;;0.63;84.89;99334.89;109721;1271;22447;-60
2022/04/18 05:31:17;;;;;;;5.90;3.50;;;;;;;0.68;84.53;99335.54;109761;1271;22542;-60
2022/04/18 05:33:55;;;;;;;5.70;3.90;;;;;;;0.71;84.40;99332.64;109705;1271;22567;-61
2022/04/18 05:36:26;;;;;;;5.70;4.00;;;;;;;0.74;84.08;99336.41;109766;1270;23667;-60
2022/04/18 05:38:56;;;;;;;6.40;3.30;;;;;;;0.75;84.14;99335.23;109724;1270;22405;-60
2022/04/18 05:41:31;;;;;;;4.90;3.30;;;;;;;0.78;83.68;99337.27;109725;1271;22416;-60
2022/04/18 05:43:59;;;;;;;7.00;4.00;;;;;;;0.83;83.98;99331.03;109696;1271;22478;-60
2022/04/18 05:46:33;;;;;;;5.80;4.20;;;;;;;0.86;83.78;99327.86;109710;1271;23423;-60
2022/04/18 05:49:02;;;;;;;6.50;3.70;;;;;;;0.90;83.70;99327.66;109666;1271;22373;-60
2022/04/18 05:51:32;;;;;;;8.80;4.20;;;;;;;0.93;83.66;99330.61;107158;1271;22725;-59
2022/04/18 05:54:03;;;;;;;4.70;3.40;;;;;;;0.97;83.62;99328.73;109728;1271;23445;-60
2022/04/18 05:56:40;;;;;;;5.60;3.60;;;;;;;1.00;83.40;99329.73;109730;1271;22524;-60
2022/04/18 05:59:20;;;;;;;10.20;3.70;;;;;;;1.03;83.32;99330.39;109752;1271;22395;-60
2022/04/18 06:02:04;;;;;;;8.20;3.90;;;;;;;1.02;83.17;99333.65;109659;1272;22399;-60
2022/04/18 06:04:37;;;;;;;10.00;5.60;;;;;;;1.00;82.86;99331.27;109746;1271;22555;-60
2022/04/18 06:07:28;;;;;;;5.60;4.00;;;;;;;1.02;82.88;99327.41;109663;1271;22534;-60
2022/04/18 06:10:28;;;;;;;13.60;5.20;;;;;;;1.04;82.63;99322.59;109382;1273;23202;-61
2022/04/18 06:13:20;;;;;;;10.20;5.60;;;;;;;1.02;82.37;99321.34;109702;1271;22443;-60
2022/04/18 06:15:52;;;;;;;9.80;4.80;;;;;;;1.01;82.23;99322.92;109704;1272;22406;-60
2022/04/18 06:18:32;;;;;;;7.00;4.30;;;;;;;1.00;81.79;99321.94;109672;1273;23255;-60
2022/04/18 06:21:06;;;;;;;7.50;5.10;;;;;;;1.02;81.81;99324.08;109700;1271;22415;-60
2022/04/18 06:23:34;;;;;;;7.10;4.40;;;;;;;1.05;81.88;99320.05;109674;1271;23879;-60
2022/04/18 06:26:26;;;;;;;8.70;4.10;;;;;;;1.10;81.84;99314.53;109679;1271;22461;-60
2022/04/18 06:28:54;;;;;;;7.50;4.70;;;;;;;1.11;81.68;99318.98;109722;1271;22412;-60
2022/04/18 06:31:25;;;;;;;10.30;4.60;;;;;;;1.14;81.44;99318.30;109715;1271;22438;-60
2022/04/18 06:34:00;;;;;;;8.70;4.30;;;;;;;1.16;82.02;99316.69;109693;1271;22270;-60
2022/04/18 06:36:28;;;;;;;7.90;4.80;;;;;;;1.19;81.27;99321.98;109767;1271;22452;-64
2022/04/18 06:39:19;;;;;;;6.80;4.60;;;;;;;1.22;81.21;99317.82;109512;1274;22424;-64
2022/04/18 06:41:48;;;;;;;8.50;5.10;;;;;;;1.28;81.38;99321.69;109711;1271;23061;-64
2022/04/18 06:44:21;;;;;;;8.70;4.30;;;;;;;1.33;81.12;99321.96;109732;1271;22402;-64
2022/04/18 06:46:54;;;;;;;5.40;4.40;;;;;;;1.36;80.86;99321.36;109721;1271;22388;-64
2022/04/18 06:49:40;;;;;;;5.40;4.10;;;;;;;1.38;80.67;99319.84;109716;1271;22506;-64
2022/04/18 06:52:36;;;;;;;6.10;4.00;;;;;;;1.43;80.67;99322.73;109764;1271;22423;-64
2022/04/18 06:58:43;;;;;;;7.70;4.00;;;;;;;1.61;80.65;99323.36;109771;1270;22229;-64
2022/04/18 07:01:11;;;;;;;7.80;4.50;;;;;;;1.63;80.05;99321.94;109723;1271;22630;-64
2022/04/18 07:03:40;;;;;;;6.20;4.00;;;;;;;1.66;79.82;99320.17;109641;1273;22441;-64
2022/04/18 07:06:08;;;;;;;7.70;4.80;;;;;;;1.67;79.47;99314.30;109664;1271;23595;-64
2022/04/18 07:08:36;;;;;;;8.30;5.40;;;;;;;1.66;79.32;99318.02;109745;1270;22442;-64
2022/04/18 07:11:32;;;;;;;7.40;5.30;;;;;;;1.67;79.38;99317.73;109725;1273;22521;-64
2022/04/18 07:14:00;;;;;;;9.40;5.70;;;;;;;1.68;79.16;99316.29;109740;1271;22484;-64
2022/04/18 07:16:30;;;;;;;7.50;5.50;;;;;;;1.68;79.11;99322.95;109708;1273;22442;-60
2022/04/18 07:18:59;;;;;;;10.70;5.30;;;;;;;1.68;78.97;99324.55;109643;1272;22422;-60
2022/04/18 07:21:27;;;;;;;8.50;6.00;;;;;;;1.67;78.37;99324.17;109461;1271;259672;-60
2022/04/18 07:24:35;;;;;;;5.50;3.80;;;;;;;1.70;78.45;99323.39;101890;1310;545204;-60
2022/04/18 07:27:04;;;;;;;8.70;4.40;;;;;;;1.71;78.40;99326.83;108606;1284;23708;-60
2022/04/18 07:29:39;;;;;;;6.70;4.30;;;;;;;1.76;78.80;99324.50;108526;1287;22534;-60
2022/04/18 07:32:08;;;;;;;4.90;3.60;;;;;;;1.81;79.23;99322.44;108670;1281;22496;-60
2022/04/18 07:34:38;;;;;;;6.50;4.50;;;;;;;1.87;79.37;99318.65;108396;1286;23090;-60
2022/04/18 07:37:08;;;;;;;13.60;8.80;;;;;;;1.89;79.47;99314.21;108282;1283;197322;-60
2022/04/18 07:39:39;;;;;;;39.30;18.60;;;;;;;1.89;79.71;99310.36;108701;1283;23305;-60
2022/04/18 07:42:07;;;;;;;84.20;38.50;;;;;;;1.91;79.77;99307.18;108613;1283;23471;-60
2022/04/18 07:44:35;;;;;;;42.70;18.10;;;;;;;1.94;79.62;99309.80;108655;1284;22599;-60
2022/04/18 07:47:04;;;;;;;33.10;13.50;;;;;;;1.96;79.25;99303.30;109068;1280;23212;-60
2022/04/18 07:49:34;;;;;;;40.50;19.40;;;;;;;2.01;79.41;99303.80;109089;1280;22405;-60
2022/04/18 07:52:03;;;;;;;19.00;10.60;;;;;;;2.08;79.11;99303.91;109053;1280;22799;-60
2022/04/18 07:54:37;;;;;;;10.10;4.90;;;;;;;2.15;78.72;99299.74;109053;1279;23181;-60
2022/04/18 07:57:05;;;;;;;5.90;4.10;;;;;;;2.19;78.38;99301.48;108953;1280;22495;-60
2022/04/18 07:59:48;;;;;;;8.20;4.60;;;;;;;2.24;78.06;99303.15;109074;1280;22497;-60
2022/04/18 08:02:18;;;;;;;10.10;6.60;;;;;;;2.29;77.78;99300.41;109051;1280;22513;-60
2022/04/18 08:04:59;;;;;;;4.90;3.50;;;;;;;2.38;77.58;99295.05;108884;1280;22418;-60
2022/04/18 08:07:36;;;;;;;5.10;3.90;;;;;;;2.48;76.89;99290.52;108843;1280;22231;-60
2022/04/18 08:10:07;;;;;;;6.30;4.70;;;;;;;2.56;76.09;99287.98;109079;1278;22474;-60
2022/04/18 08:12:41;;;;;;;5.70;4.40;;;;;;;2.62;75.85;99286.58;109321;1277;22436;-60
2022/04/18 08:15:29;;;;;;;;;;;;;;;2.71;75.64;99283.69;109422;1276;23374;-60
2022/04/18 08:17:58;;;;;;;6.30;3.10;;;;;;;2.80;75.57;99282.79;109332;1277;22309;-60
2022/04/18 08:20:49;;;;;;;7.50;6.20;;;;;;;2.85;74.43;99272.00;109359;1277;22469;-60
2022/04/18 08:23:18;;;;;;;6.90;4.30;;;;;;;2.86;74.36;99276.06;109376;1277;22441;-60
2022/04/18 08:26:22;;;;;;;5.40;3.70;;;;;;;2.87;73.89;99271.91;109057;1277;22728;-60
2022/04/18 08:28:53;;;;;;;5.90;3.30;;;;;;;2.89;73.71;99273.55;109386;1276;22432;-61
2022/04/18 08:31:22;;;;;;;5.30;3.50;;;;;;;2.88;73.58;99269.99;109373;1277;23336;-60
2022/04/18 08:34:04;;;;;;;4.80;3.10;;;;;;;2.85;72.84;99269.23;109352;1277;22551;-60
2022/04/18 08:36:33;;;;;;;5.10;2.90;;;;;;;2.82;72.73;99270.48;109374;1277;22409;-60
2022/04/18 08:39:03;;;;;;;4.80;3.40;;;;;;;2.81;72.55;99267.88;109335;1276;22429;-60
2022/04/18 08:41:34;;;;;;;5.50;2.80;;;;;;;2.83;72.78;99266.92;109470;1274;22487;-60
2022/04/18 08:44:03;;;;;;;3.90;3.10;;;;;;;2.86;72.71;99268.70;109259;1277;22556;-61
2022/04/18 08:46:33;;;;;;;3.30;2.70;;;;;;;2.90;72.42;99267.36;106807;1277;22560;-59
2022/04/18 08:54:49;;;;;;;4.00;2.70;;;;;;;2.89;72.10;99254.88;105052;1277;22574;-59
2022/04/18 08:57:23;;;;;;;4.30;2.70;;;;;;;2.93;72.23;99257.42;109428;1276;23264;-60
2022/04/18 08:59:52;;;;;;;3.40;2.40;;;;;;;2.98;72.08;99260.17;109409;1277;22385;-60
2022/04/18 09:02:20;;;;;;;4.20;2.80;;;;;;;3.02;71.41;99253.75;109356;1276;22491;-60
2022/04/18 09:05:11;;;;;;;6.80;3.40;;;;;;;3.02;71.07;99247.90;109487;1277;22511;-60
2022/04/18 09:07:43;;;;;;;4.70;3.30;;;;;;;3.06;71.06;99248.70;109509;1276;22377;-60
2022/04/18 09:10:12;;;;;;;4.20;2.90;;;;;;;3.08;70.94;99246.20;109460;1274;23216;-60
2022/04/18 09:12:42;;;;;;;5.40;3.00;;;;;;;3.07;71.25;99246.25;109175;1277;22438;-60
2022/04/18 09:15:41;;;;;;;4.50;3.10;;;;;;;3.08;71.03;99247.45;109451;1276;23448;-55
2022/04/18 09:18:12;;;;;;;4.60;2.50;;;;;;;3.03;70.99;99252.55;109464;1277;22399;-55
2022/04/18 09:20:52;;;;;;;9.40;3.40;;;;;;;2.98;71.46;99245.94;109441;1276;22434;-55
2022/04/18 09:23:27;;;;;;;5.10;2.90;;;;;;;2.98;71.58;99239.40;109364;1277;22496;-55
2022/04/18 09:26:05;;;;;;;4.80;2.90;;;;;;;3.00;71.55;99241.66;109371;1274;22397;-55
2022/04/18 09:28:34;;;;;;;3.80;2.40;;;;;;;3.02;71.28;99241.94;106961;1277;22574;-54
2022/04/18 09:31:10;;;;;;;3.90;2.40;;;;;;;3.05;70.58;99244.10;109320;1277;23231;-55
2022/04/18 09:33:46;;;;;;;3.40;2.60;;;;;;;3.04;70.07;99241.16;109347;1276;22447;-54
2022/04/18 09:36:19;;;;;;;5.00;2.70;;;;;;;3.06;70.22;99236.68;109361;1276;22435;-54
2022/04/18 09:38:49;;;;;;;4.50;3.00;;;;;;;3.11;70.44;99234.80;109363;1277;23403;-55
2022/04/18 09:41:35;;;;;;;7.30;3.10;;;;;;;3.17;70.45;99234.48;109497;1274;22598;-54
2022/04/18 09:44:27;;;;;;;5.20;2.90;;;;;;;3.23;70.26;99234.42;109529;1274;22213;-55
2022/04/18 09:46:55;;;;;;;6.20;3.00;;;;;;;3.29;70.51;99234.85;109340;1277;23227;-55
2022/04/18 09:49:38;;;;;;;5.40;2.60;;;;;;;3.33;70.27;99237.20;109191;1277;23012;-54
2022/04/18 09:52:11;;;;;;;4.20;2.70;;;;;;;3.35;69.98;99237.73;109439;1276;22438;-55
2022/04/18 09:54:56;;;;;;;5.40;3.30;;;;;;;3.34;70.08;99241.42;109390;1276;22403;-55
2022/04/18 09:57:25;;;;;;;6.30;3.80;;;;;;;3.35;70.29;99234.88;109422;1276;22370;-54
2022/04/18 09:59:55;;;;;;;6.10;3.60;;;;;;;3.33;70.07;99229.21;109552;1274;22441;-54
2022/04/18 10:02:25;;;;;;;4.50;3.00;;;;;;;3.30;70.23;99229.10;109358;1276;23457;-55
2022/04/18 10:04:54;;;;;;;4.30;3.20;;;;;;;3.30;70.24;99224.29;109480;1275;22461;-54
2022/04/18 10:07:34;;;;;;;6.50;3.60;;;;;;;3.33;70.15;99224.20;109374;1276;22399;-54
2022/04/18 10:10:03;;;;;;;4.90;3.20;;;;;;;3.35;69.92;99226.92;109488;1275;23514;-55
2022/04/18 10:12:51;;;;;;;4.10;2.90;;;;;;;3.33;69.58;99226.48;109379;1276;22459;-55
2022/04/18 10:15:19;;;;;;;5.40;3.30;;;;;;;3.34;69.75;99222.62;109521;1274;23236;-55
2022/04/18 10:18:08;;;;;;;4.90;3.00;;;;;;;3.38;69.53;99219.90;109462;1276;23058;-55
2022/04/18 10:20:41;;;;;;;4.00;2.90;;;;;;;3.37;69.24;99219.00;109491;1276;22428;-55
2022/04/18 10:23:30;;;;;;;4.60;2.80;;;;;;;3.38;69.09;99221.02;109418;1276;22444;-54
2022/04/18 10:26:20;;;;;;;5.90;3.30;;;;;;;3.41;69.10;99220.71;109423;1274;22430;-55
2022/04/18 10:28:49;;;;;;;6.30;3.00;;;;;;;3.40;69.21;99216.29;109353;1275;22446;-55
2022/04/18 10:31:23;;;;;;;5.50;3.50;;;;;;;3.41;69.27;99215.00;109343;1277;22445;-54
2022/04/18 10:33:51;;;;;;;6.00;3.30;;;;;;;3.43;69.23;99215.36;109452;1277;23465;-55
2022/04/18 10:36:27;;;;;;;8.30;4.30;;;;;;;3.45;69.43;99219.48;109472;1277;22450;-55
2022/04/18 10:38:56;;;;;;;8.80;4.00;;;;;;;3.49;69.37;99221.96;109461;1276;22546;-55
2022/04/18 10:41:41;;;;;;;5.80;3.50;;;;;;;3.56;69.37;99222.14;109442;1274;22267;-54
2022/04/18 10:44:13;;;;;;;6.60;3.70;;;;;;;3.61;69.17;99223.70;109502;1274;23139;-55
2022/04/18 10:46:53;;;;;;;5.50;3.60;;;;;;;3.64;68.87;99220.52;109504;1274;22399;-55
2022/04/18 10:49:29;;;;;;;5.60;2.90;;;;;;;3.63;68.63;99223.05;109365;1277;23232;-55
2022/04/18 10:51:57;;;;;;;7.70;4.50;;;;;;;3.58;68.60;99219.63;109478;1276;22421;-55
2022/04/18 10:54:26;;;;;;;18.60;10.10;;;;;;;3.53;68.66;99225.66;109363;1277;22483;-55
2022/04/18 10:57:11;;;;;;;7.80;3.40;;;;;;;3.48;68.45;99219.81;109463;1274;22409;-54
2022/04/18 10:59:42;;;;;;;7.20;3.00;;;;;;;3.46;68.56;99222.90;109473;1274;23266;-55
2022/04/18 11:02:36;;;;;;;3.00;2.40;;;;;;;3.45;68.09;99223.73;109474;1276;22479;-54
2022/04/18 11:05:06;;;;;;;3.70;2.60;;;;;;;3.40;67.64;99220.69;109476;1276;22432;-54
2022/04/18 11:07:56;;;;;;;3.50;2.10;;;;;;;3.37;67.75;99221.11;109479;1276;22236;-54
2022/04/18 11:10:24;;;;;;;3.50;2.40;;;;;;;3.36;67.72;99221.23;109497;1275;22447;-54
2022/04/18 11:13:00;;;;;;;3.00;2.70;;;;;;;3.37;67.72;99222.86;109512;1274;22432;-54
2022/04/18 11:15:28;;;;;;;4.00;3.00;;;;;;;3.38;67.66;99219.33;109482;1274;22393;-55
2022/04/18 11:17:56;;;;;;;4.90;3.10;;;;;;;3.41;67.76;99218.27;109368;1277;22589;-54
2022/04/18 11:20:35;;;;;;;5.50;2.80;;;;;;;3.43;67.54;99215.48;109261;1277;23023;-55
2022/04/18 11:23:23;;;;;;;7.50;3.60;;;;;;;3.46;67.55;99214.27;109482;1276;23268;-54
2022/04/18 11:26:01;;;;;;;5.80;3.70;;;;;;;3.50;67.34;99215.41;109451;1275;22469;-54
2022/04/18 11:28:41;;;;;;;9.60;3.90;;;;;;;3.54;67.61;99212.06;109544;1274;22364;-54
2022/04/18 11:31:17;;;;;;;10.90;5.30;;;;;;;3.62;67.74;99208.85;109488;1274;23200;-55
2022/04/18 11:33:46;;;;;;;8.00;4.20;;;;;;;3.68;67.71;99207.34;109467;1277;22525;-54
2022/04/18 11:36:14;;;;;;;7.80;4.80;;;;;;;3.73;67.78;99204.04;107604;1276;23971;-54
2022/04/18 11:38:45;;;;;;;7.90;4.80;;;;;;;3.79;67.80;99201.48;109441;1276;22505;-55
2022/04/18 11:41:13;;;;;;;11.40;5.30;;;;;;;3.86;67.77;99204.58;109449;1277;22439;-54
2022/04/18 11:43:43;;;;;;;14.60;5.90;;;;;;;3.91;67.38;99199.32;109426;1277;22507;-55
2022/04/18 11:46:11;;;;;;;13.80;5.10;;;;;;;3.95;67.89;99197.05;109467;1274;23492;-55
2022/04/18 11:48:39;;;;;;;16.30;6.30;;;;;;;4.03;67.78;99194.66;109473;1276;22405;-54
2022/04/18 11:51:07;;;;;;;13.50;5.10;;;;;;;4.08;67.54;99198.82;109403;1276;23232;-54
2022/04/18 11:53:40;;;;;;;8.70;4.40;;;;;;;4.15;67.25;99197.09;109486;1276;22408;-54
2022/04/18 11:56:08;;;;;;;8.90;3.90;;;;;;;4.21;66.95;99195.31;109492;1276;22454;-55
2022/04/18 11:58:53;;;;;;;6.20;3.20;;;;;;;4.27;66.39;99195.59;109497;1274;22433;-55
2022/04/18 12:07:04;;;;;;;5.70;3.60;;;;;;;4.40;66.77;99189.66;109434;1276;23299;-54
2022/04/18 12:09:32;;;;;;;5.70;3.30;;;;;;;4.47;66.67;99186.38;109481;1275;22763;-55
2022/04/18 12:12:02;;;;;;;7.20;3.40;;;;;;;4.55;66.53;99182.33;109475;1274;22406;-55
2022/04/18 12:14:50;;;;;;;7.10;3.70;;;;;;;4.66;66.81;99179.11;109394;1274;22460;-55
2022/04/18 12:17:18;;;;;;;5.60;3.40;;;;;;;4.74;66.06;99175.13;109518;1274;22477;-55
2022/04/18 12:20:26;;;;;;;5.20;3.10;;;;;;;4.77;65.61;99173.20;109461;1276;23096;-55
2022/04/18 12:22:58;;;;;;;6.90;4.10;;;;;;;4.81;65.46;99166.29;109498;1276;22405;-55
2022/04/18 12:25:48;;;;;;;7.00;3.80;;;;;;;4.80;65.07;99166.38;109474;1277;22633;-55
2022/04/18 12:28:23;;;;;;;8.30;3.90;;;;;;;4.79;64.62;99174.73;109467;1274;23183;-54
2022/04/18 12:30:51;;;;;;;5.00;3.90;;;;;;;4.77;64.39;99170.66;109472;1274;22439;-55
2022/04/18 12:33:21;;;;;;;9.60;4.20;;;;;;;4.73;64.15;99170.73;109473;1276;22422;-55